Time,TemperatureF,DewpointF,PressureIn,WindDirection,WindDirectionDegrees,WindSpeedMPH,WindSpeedGustMPH,Humidity,HourlyPrecipIn,Conditions,Clouds,dailyrainin,SoftwareType,DateUTC
2013-06-04 00:04:00,38.9,35.0,30.16,North,355,0.0,-999.0,84,-99.99,,,0.00,weatherlink.com 1.10,2013-06-04 04:04:00,
2013-06-04 00:19:00,38.5,34.0,30.17,North,355,0.0,-999.0,84,-99.99,,,0.00,weatherlink.com 1.10,2013-06-04 04:19:00,
2013-06-04 00:34:00,37.8,34.0,30.17,North,355,0.0,-999.0,86,-99.99,,,0.00,weatherlink.com 1.10,2013-06-04 04:34:00,
2013-06-04 00:49:00,37.1,33.0,30.18,NNW,342,0.0,-999.0,86,-99.99,,,0.00,weatherlink.com 1.10,2013-06-04 04:49:00,
2013-06-04 01:04:00,36.8,33.0,30.18,NNW,342,0.0,-999.0,87,-99.99,,,0.00,weatherlink.com 1.10,2013-06-04 05:04:00,
2013-06-04 01:20:00,36.7,34.0,30.17,NNW,342,0.0,-999.0,88,-99.99,,,0.00,weatherlink.com 1.10,2013-06-04 05:20:00,
2013-06-04 01:35:00,36.1,33.0,30.18,NNW,342,0.0,-999.0,88,-99.99,,,0.00,weatherlink.com 1.10,2013-06-04 05:35:00,
2013-06-04 01:50:00,35.7,33.0,30.17,NNW,342,0.0,-999.0,89,-99.99,,,0.00,weatherlink.com 1.10,2013-06-04 05:50:00,
2013-06-04 02:05:00,35.7,33.0,30.17,NNW,342,0.0,-999.0,89,-99.99,,,0.00,weatherlink.com 1.10,2013-06-04 06:05:00,
2013-06-04 02:50:00,34.7,32.0,30.18,NNW,342,0.0,-999.0,90,-99.99,,,0.00,weatherlink.com 1.10,2013-06-04 06:50:00,
2013-06-04 03:05:00,34.2,32.0,30.18,NNW,341,0.0,-999.0,90,-99.99,,,0.00,weatherlink.com 1.10,2013-06-04 07:05:00,
2013-06-04 03:20:00,33.8,31.0,30.17,WNW,290,0.0,-999.0,90,-99.99,,,0.00,weatherlink.com 1.10,2013-06-04 07:20:00,
2013-06-04 03:35:00,33.7,31.0,30.17,WNW,290,0.0,-999.0,90,-99.99,,,0.00,weatherlink.com 1.10,2013-06-04 07:35:00,
2013-06-04 03:50:00,33.5,31.0,30.18,WNW,290,0.0,-999.0,91,-99.99,,,0.00,weatherlink.com 1.10,2013-06-04 07:50:00,
2013-06-04 04:05:00,33.2,31.0,30.18,WNW,290,0.0,-999.0,91,-99.99,,,0.00,weatherlink.com 1.10,2013-06-04 08:05:00,
2013-06-04 04:20:00,32.8,31.0,30.18,WNW,290,0.0,-999.0,92,-99.99,,,0.00,weatherlink.com 1.10,2013-06-04 08:20:00,
2013-06-04 04:49:00,32.3,30.0,30.19,WNW,290,0.0,-999.0,92,-99.99,,,0.00,weatherlink.com 1.10,2013-06-04 08:49:00,
2013-06-04 05:21:00,32.3,31.0,30.19,WNW,289,0.0,-999.0,93,-99.99,,,0.00,weatherlink.com 1.10,2013-06-04 09:21:00,
2013-06-04 05:36:00,32.2,30.0,30.19,WNW,290,0.0,-999.0,93,-99.99,,,0.00,weatherlink.com 1.10,2013-06-04 09:36:00,
2013-06-04 05:51:00,32.1,30.0,30.20,WNW,290,0.0,-999.0,93,-99.99,,,0.00,weatherlink.com 1.10,2013-06-04 09:51:00,
2013-06-04 06:06:00,32.1,30.0,30.21,WNW,290,0.0,-999.0,93,-99.99,,,0.00,weatherlink.com 1.10,2013-06-04 10:06:00,
2013-06-04 06:21:00,32.4,31.0,30.21,WNW,289,0.0,-999.0,93,-99.99,,,0.00,weatherlink.com 1.10,2013-06-04 10:21:00,
2013-06-04 06:36:00,32.7,31.0,30.22,WNW,290,0.0,-999.0,94,-99.99,,,0.00,weatherlink.com 1.10,2013-06-04 10:36:00,
2013-06-04 06:52:00,33.9,32.0,30.22,WNW,290,0.0,-999.0,94,-99.99,,,0.00,weatherlink.com 1.10,2013-06-04 10:52:00,
2013-06-04 07:07:00,35.3,33.0,30.22,WNW,290,0.0,-999.0,92,-99.99,,,0.00,weatherlink.com 1.10,2013-06-04 11:07:00,
2013-06-04 07:22:00,37.7,35.0,30.22,WNW,290,0.0,-999.0,91,-99.99,,,0.00,weatherlink.com 1.10,2013-06-04 11:22:00,
2013-06-04 07:37:00,40.1,37.0,30.22,WNW,290,0.0,-999.0,87,-99.99,,,0.00,weatherlink.com 1.10,2013-06-04 11:37:00,
2013-06-04 07:52:00,41.7,37.0,30.23,WNW,290,0.0,-999.0,83,-99.99,,,0.00,weatherlink.com 1.10,2013-06-04 11:52:00,
2013-06-04 08:07:00,43.6,39.0,30.24,WNW,290,0.0,-999.0,84,-99.99,,,0.00,weatherlink.com 1.10,2013-06-04 12:07:00,
2013-06-04 08:22:00,46.8,41.0,30.24,WNW,290,0.0,-999.0,79,-99.99,,,0.00,weatherlink.com 1.10,2013-06-04 12:22:00,
2013-06-04 08:37:00,51.0,42.0,30.24,WNW,290,0.0,-999.0,72,-99.99,,,0.00,weatherlink.com 1.10,2013-06-04 12:37:00,
2013-06-04 08:53:00,53.9,41.0,30.24,WNW,290,0.0,-999.0,61,-99.99,,,0.00,weatherlink.com 1.10,2013-06-04 12:53:00,
2013-06-04 09:08:00,55.5,35.0,30.24,WNW,290,0.0,-999.0,46,-99.99,,,0.00,weatherlink.com 1.10,2013-06-04 13:08:00,
2013-06-04 09:23:00,56.6,37.0,30.25,WNW,290,0.0,-999.0,48,-99.99,,,0.00,weatherlink.com 1.10,2013-06-04 13:23:00,
2013-06-04 09:38:00,58.5,37.0,30.24,NW,321,0.0,-999.0,45,-99.99,,,0.00,weatherlink.com 1.10,2013-06-04 13:38:00,
2013-06-04 09:53:00,58.3,37.0,30.24,NNW,345,0.0,-999.0,45,-99.99,,,0.00,weatherlink.com 1.10,2013-06-04 13:53:00,
2013-06-04 10:08:00,58.7,35.0,30.24,ENE,76,0.0,-999.0,42,-99.99,,,0.00,weatherlink.com 1.10,2013-06-04 14:08:00,
2013-06-04 10:23:00,59.5,32.0,30.24,NE,46,2.0,-999.0,36,-99.99,,,0.00,weatherlink.com 1.10,2013-06-04 14:23:00,
2013-06-04 10:38:00,59.2,35.0,30.24,East,83,0.0,-999.0,40,-99.99,,,0.00,weatherlink.com 1.10,2013-06-04 14:38:00,
2013-06-04 10:53:00,59.9,37.0,30.23,ENE,76,0.0,-999.0,42,-99.99,,,0.00,weatherlink.com 1.10,2013-06-04 14:53:00,
2013-06-04 11:09:00,60.1,34.0,30.23,ESE,104,0.0,-999.0,37,-99.99,,,0.00,weatherlink.com 1.10,2013-06-04 15:09:00,
2013-06-04 11:24:00,59.9,33.0,30.23,East,96,0.0,-999.0,37,-99.99,,,0.00,weatherlink.com 1.10,2013-06-04 15:24:00,
2013-06-04 11:39:00,59.9,33.0,30.24,East,97,0.0,-999.0,37,-99.99,,,0.00,weatherlink.com 1.10,2013-06-04 15:39:00,
2013-06-04 11:54:00,60.5,34.0,30.25,East,97,0.0,-999.0,37,-99.99,,,0.00,weatherlink.com 1.10,2013-06-04 15:54:00,
2013-06-04 12:09:00,60.6,35.0,30.25,NNE,32,0.0,-999.0,38,-99.99,,,0.00,weatherlink.com 1.10,2013-06-04 16:09:00,
2013-06-04 12:24:00,60.5,34.0,30.25,NNE,32,0.0,-999.0,37,-99.99,,,0.00,weatherlink.com 1.10,2013-06-04 16:24:00,
2013-06-04 12:39:00,60.5,35.0,30.24,NNE,32,0.0,-999.0,38,-99.99,,,0.00,weatherlink.com 1.10,2013-06-04 16:39:00,
2013-06-04 12:54:00,61.3,36.0,30.25,ENE,59,0.0,-999.0,39,-99.99,,,0.00,weatherlink.com 1.10,2013-06-04 16:54:00,
2013-06-04 13:09:00,61.5,37.0,30.25,North,360,0.0,-999.0,41,-99.99,,,0.00,weatherlink.com 1.10,2013-06-04 17:09:00,
2013-06-04 13:24:00,61.1,39.0,30.25,North,5,0.0,-999.0,45,-99.99,,,0.00,weatherlink.com 1.10,2013-06-04 17:24:00,
2013-06-04 13:39:00,61.8,39.0,30.25,North,360,0.0,-999.0,44,-99.99,,,0.00,weatherlink.com 1.10,2013-06-04 17:39:00,
2013-06-04 13:54:00,62.4,37.0,30.25,NNW,336,2.0,-999.0,39,-99.99,,,0.00,weatherlink.com 1.10,2013-06-04 17:54:00,
2013-06-04 14:09:00,62.6,36.0,30.25,NW,325,0.0,-999.0,37,-99.99,,,0.00,weatherlink.com 1.10,2013-06-04 18:09:00,
2013-06-04 14:25:00,62.8,35.0,30.24,NW,325,0.0,-999.0,35,-99.99,,,0.00,weatherlink.com 1.10,2013-06-04 18:25:00,
2013-06-04 14:40:00,63.9,38.0,30.24,WSW,252,0.0,-999.0,38,-99.99,,,0.00,weatherlink.com 1.10,2013-06-04 18:40:00,
2013-06-04 14:55:00,64.4,36.0,30.23,East,97,5.0,-999.0,35,-99.99,,,0.00,weatherlink.com 1.10,2013-06-04 18:55:00,
2013-06-04 15:10:00,63.1,36.0,30.23,ENE,73,5.0,-999.0,36,-99.99,,,0.00,weatherlink.com 1.10,2013-06-04 19:10:00,
2013-06-04 15:25:00,62.5,34.0,30.22,ENE,74,4.0,-999.0,35,-99.99,,,0.00,weatherlink.com 1.10,2013-06-04 19:25:00,
2013-06-04 15:40:00,62.5,36.0,30.22,NNE,21,0.0,-999.0,38,-99.99,,,0.00,weatherlink.com 1.10,2013-06-04 19:40:00,
2013-06-04 15:55:00,62.1,33.0,30.22,NE,52,0.0,-999.0,34,-99.99,,,0.00,weatherlink.com 1.10,2013-06-04 19:55:00,
2013-06-04 16:10:00,62.8,36.0,30.22,ENE,62,5.0,-999.0,37,-99.99,,,0.00,weatherlink.com 1.10,2013-06-04 20:10:00,
2013-06-04 16:25:00,62.4,35.0,30.22,NE,39,1.0,-999.0,36,-99.99,,,0.00,weatherlink.com 1.10,2013-06-04 20:25:00,
2013-06-04 16:40:00,63.2,37.0,30.21,ENE,78,5.0,-999.0,38,-99.99,,,0.00,weatherlink.com 1.10,2013-06-04 20:40:00,
2013-06-04 16:55:00,63.3,34.0,30.21,ENE,66,5.0,-999.0,33,-99.99,,,0.00,weatherlink.com 1.10,2013-06-04 20:55:00,
2013-06-04 17:10:00,62.0,35.0,30.21,NNE,32,2.0,-999.0,36,-99.99,,,0.00,weatherlink.com 1.10,2013-06-04 21:10:00,
2013-06-04 17:26:00,60.3,34.0,30.21,NNE,30,4.0,-999.0,37,-99.99,,,0.00,weatherlink.com 1.10,2013-06-04 21:26:00,
2013-06-04 17:41:00,58.8,33.0,30.21,North,360,0.0,-999.0,38,-99.99,,,0.00,weatherlink.com 1.10,2013-06-04 21:41:00,
2013-06-04 17:56:00,58.0,34.0,30.21,North,5,0.0,-999.0,40,-99.99,,,0.00,weatherlink.com 1.10,2013-06-04 21:56:00,
2013-06-04 18:11:00,57.6,33.0,30.21,North,10,0.0,-999.0,40,-99.99,,,0.00,weatherlink.com 1.10,2013-06-04 22:11:00,
2013-06-04 18:26:00,57.5,33.0,30.21,NE,49,0.0,-999.0,40,-99.99,,,0.00,weatherlink.com 1.10,2013-06-04 22:26:00,
2013-06-04 18:41:00,58.2,35.0,30.21,NNE,18,0.0,-999.0,42,-99.99,,,0.00,weatherlink.com 1.10,2013-06-04 22:41:00,
2013-06-04 19:11:00,58.3,35.0,30.21,NE,40,0.0,-999.0,42,-99.99,,,0.00,weatherlink.com 1.10,2013-06-04 23:11:00,
2013-06-04 19:26:00,57.9,36.0,30.22,NE,40,0.0,-999.0,45,-99.99,,,0.00,weatherlink.com 1.10,2013-06-04 23:26:00,
2013-06-04 19:41:00,57.2,36.0,30.21,NE,40,0.0,-999.0,46,-99.99,,,0.00,weatherlink.com 1.10,2013-06-04 23:41:00,
2013-06-04 19:56:00,56.1,37.0,30.21,NE,40,0.0,-999.0,50,-99.99,,,0.00,weatherlink.com 1.10,2013-06-04 23:56:00,
2013-06-04 20:11:00,55.8,40.0,30.21,NE,40,0.0,-999.0,55,-99.99,,,0.00,weatherlink.com 1.10,2013-06-05 00:11:00,
2013-06-04 20:26:00,55.4,38.0,30.21,NE,40,0.0,-999.0,53,-99.99,,,0.00,weatherlink.com 1.10,2013-06-05 00:26:00,
2013-06-04 20:41:00,54.7,38.0,30.21,NE,40,0.0,-999.0,54,-99.99,,,0.00,weatherlink.com 1.10,2013-06-05 00:41:00,
2013-06-04 20:57:00,54.3,38.0,30.21,NE,40,0.0,-999.0,54,-99.99,,,0.00,weatherlink.com 1.10,2013-06-05 00:57:00,
2013-06-04 21:12:00,53.9,41.0,30.21,NE,40,0.0,-999.0,61,-99.99,,,0.00,weatherlink.com 1.10,2013-06-05 01:12:00,
2013-06-04 21:27:00,53.5,41.0,30.22,NE,40,0.0,-999.0,63,-99.99,,,0.00,weatherlink.com 1.10,2013-06-05 01:27:00,
2013-06-04 21:42:00,53.1,41.0,30.22,NE,40,0.0,-999.0,63,-99.99,,,0.00,weatherlink.com 1.10,2013-06-05 01:42:00,
2013-06-04 21:57:00,52.8,43.0,30.22,NE,40,0.0,-999.0,70,-99.99,,,0.00,weatherlink.com 1.10,2013-06-05 01:57:00,
2013-06-04 22:12:00,52.2,43.0,30.22,NE,40,0.0,-999.0,72,-99.99,,,0.00,weatherlink.com 1.10,2013-06-05 02:12:00,
2013-06-04 22:27:00,51.5,43.0,30.23,NE,40,0.0,-999.0,74,-99.99,,,0.00,weatherlink.com 1.10,2013-06-05 02:27:00,
2013-06-04 22:42:00,51.0,43.0,30.22,NE,40,0.0,-999.0,75,-99.99,,,0.00,weatherlink.com 1.10,2013-06-05 02:42:00,
2013-06-04 22:57:00,50.7,43.0,30.22,NE,40,0.0,-999.0,75,-99.99,,,0.00,weatherlink.com 1.10,2013-06-05 02:57:00,
2013-06-04 23:12:00,50.4,42.0,30.22,NE,40,0.0,-999.0,72,-99.99,,,0.00,weatherlink.com 1.10,2013-06-05 03:12:00,
2013-06-04 23:27:00,50.3,42.0,30.22,NE,40,0.0,-999.0,73,-99.99,,,0.00,weatherlink.com 1.10,2013-06-05 03:27:00,
2013-06-04 23:42:00,50.1,44.0,30.22,NE,40,0.0,-999.0,79,-99.99,,,0.00,weatherlink.com 1.10,2013-06-05 03:42:00,
2013-06-04 23:57:00,50.0,44.0,30.21,NE,40,0.0,-999.0,79,-99.99,,,0.00,weatherlink.com 1.10,2013-06-05 03:57:00,